sensor_id;sensor_type;location;lat;lon;timestamp;temperature;humidity
64209;DHT22;50527;52.414;13.226;2023-05-07T00:01:16;9.70;99.90
64209;DHT22;50527;52.414;13.226;2023-05-07T00:03:41;9.70;99.90
64209;DHT22;50527;52.414;13.226;2023-05-07T00:06:07;9.70;99.90
64209;DHT22;50527;52.414;13.226;2023-05-07T00:08:32;9.70;99.90
64209;DHT22;50527;52.414;13.226;2023-05-07T00:10:58;9.60;99.90
64209;DHT22;50527;52.414;13.226;2023-05-07T00:13:23;9.60;99.90
64209;DHT22;50527;52.414;13.226;2023-05-07T00:15:49;9.70;99.90
64209;DHT22;50527;52.414;13.226;2023-05-07T00:18:14;9.80;99.90
64209;DHT22;50527;52.414;13.226;2023-05-07T00:20:39;9.70;99.90
64209;DHT22;50527;52.414;13.226;2023-05-07T00:23:05;9.70;99.90
64209;DHT22;50527;52.414;13.226;2023-05-07T00:25:30;9.60;99.90
64209;DHT22;50527;52.414;13.226;2023-05-07T00:27:56;9.60;99.90
64209;DHT22;50527;52.414;13.226;2023-05-07T00:30:22;9.60;99.90
64209;DHT22;50527;52.414;13.226;2023-05-07T00:32:48;9.70;99.90
64209;DHT22;50527;52.414;13.226;2023-05-07T00:35:14;9.80;99.90
64209;DHT22;50527;52.414;13.226;2023-05-07T00:37:39;9.80;99.90
64209;DHT22;50527;52.414;13.226;2023-05-07T00:40:06;9.70;99.90
64209;DHT22;50527;52.414;13.226;2023-05-07T00:42:32;9.70;99.90
64209;DHT22;50527;52.414;13.226;2023-05-07T00:44:58;9.70;99.90
64209;DHT22;50527;52.414;13.226;2023-05-07T00:47:25;9.70;99.90
64209;DHT22;50527;52.414;13.226;2023-05-07T00:49:50;9.60;99.90
64209;DHT22;50527;52.414;13.226;2023-05-07T00:52:17;9.70;99.90
64209;DHT22;50527;52.414;13.226;2023-05-07T00:54:45;9.70;99.90
64209;DHT22;50527;52.414;13.226;2023-05-07T00:57:10;9.70;99.90
64209;DHT22;50527;52.414;13.226;2023-05-07T00:59:37;9.60;99.90
64209;DHT22;50527;52.414;13.226;2023-05-07T01:02:02;9.60;99.90
64209;DHT22;50527;52.414;13.226;2023-05-07T01:04:28;9.60;99.90
64209;DHT22;50527;52.414;13.226;2023-05-07T01:06:57;9.60;99.90
64209;DHT22;50527;52.414;13.226;2023-05-07T01:09:24;9.70;99.90
64209;DHT22;50527;52.414;13.226;2023-05-07T01:11:50;9.60;99.90
64209;DHT22;50527;52.414;13.226;2023-05-07T01:14:17;9.80;99.90
64209;DHT22;50527;52.414;13.226;2023-05-07T01:16:43;9.80;99.90
64209;DHT22;50527;52.414;13.226;2023-05-07T01:19:09;9.80;99.90
64209;DHT22;50527;52.414;13.226;2023-05-07T01:21:37;9.80;99.90
64209;DHT22;50527;52.414;13.226;2023-05-07T01:24:04;9.80;99.90
64209;DHT22;50527;52.414;13.226;2023-05-07T01:26:30;9.80;99.90
64209;DHT22;50527;52.414;13.226;2023-05-07T01:28:56;9.80;99.90
64209;DHT22;50527;52.414;13.226;2023-05-07T01:31:22;9.70;99.90
64209;DHT22;50527;52.414;13.226;2023-05-07T01:33:49;9.70;99.90
64209;DHT22;50527;52.414;13.226;2023-05-07T01:36:17;9.70;99.90
64209;DHT22;50527;52.414;13.226;2023-05-07T01:38:43;9.70;99.90
64209;DHT22;50527;52.414;13.226;2023-05-07T01:41:09;9.80;99.90
64209;DHT22;50527;52.414;13.226;2023-05-07T01:43:35;9.80;99.90
64209;DHT22;50527;52.414;13.226;2023-05-07T01:46:02;9.80;99.90
64209;DHT22;50527;52.414;13.226;2023-05-07T01:48:28;9.80;99.90
64209;DHT22;50527;52.414;13.226;2023-05-07T01:50:55;9.80;99.90
64209;DHT22;50527;52.414;13.226;2023-05-07T01:53:20;9.80;99.90
64209;DHT22;50527;52.414;13.226;2023-05-07T01:55:46;9.80;99.90
64209;DHT22;50527;52.414;13.226;2023-05-07T01:58:11;9.80;99.90
64209;DHT22;50527;52.414;13.226;2023-05-07T02:00:37;9.80;99.90
64209;DHT22;50527;52.414;13.226;2023-05-07T02:03:02;9.80;99.90
64209;DHT22;50527;52.414;13.226;2023-05-07T02:05:28;9.70;99.90
64209;DHT22;50527;52.414;13.226;2023-05-07T02:07:53;9.60;99.90
64209;DHT22;50527;52.414;13.226;2023-05-07T02:14:03;9.80;99.90
64209;DHT22;50527;52.414;13.226;2023-05-07T02:19:50;9.60;99.90
64209;DHT22;50527;52.414;13.226;2023-05-07T02:22:16;9.50;99.90
64209;DHT22;50527;52.414;13.226;2023-05-07T02:24:41;9.50;99.90
64209;DHT22;50527;52.414;13.226;2023-05-07T02:27:07;9.50;99.90
64209;DHT22;50527;52.414;13.226;2023-05-07T02:29:32;9.60;99.90
64209;DHT22;50527;52.414;13.226;2023-05-07T02:31:58;9.70;99.90
64209;DHT22;50527;52.414;13.226;2023-05-07T02:34:23;9.60;99.90
64209;DHT22;50527;52.414;13.226;2023-05-07T02:36:49;9.70;99.90
64209;DHT22;50527;52.414;13.226;2023-05-07T02:39:16;9.70;99.90
64209;DHT22;50527;52.414;13.226;2023-05-07T02:41:57;9.60;99.90
64209;DHT22;50527;52.414;13.226;2023-05-07T02:44:22;9.60;99.90
64209;DHT22;50527;52.414;13.226;2023-05-07T02:46:48;9.50;99.90
64209;DHT22;50527;52.414;13.226;2023-05-07T02:49:13;9.60;99.90
64209;DHT22;50527;52.414;13.226;2023-05-07T02:51:38;9.60;99.90
64209;DHT22;50527;52.414;13.226;2023-05-07T02:54:41;9.70;99.90
64209;DHT22;50527;52.414;13.226;2023-05-07T03:00:34;9.60;99.90
64209;DHT22;50527;52.414;13.226;2023-05-07T03:09:44;9.50;99.90
64209;DHT22;50527;52.414;13.226;2023-05-07T03:12:09;9.50;99.90
64209;DHT22;50527;52.414;13.226;2023-05-07T03:14:35;9.50;99.90
64209;DHT22;50527;52.414;13.226;2023-05-07T03:17:00;9.50;99.90
64209;DHT22;50527;52.414;13.226;2023-05-07T03:19:26;9.60;99.90
64209;DHT22;50527;52.414;13.226;2023-05-07T03:21:51;9.50;99.90
64209;DHT22;50527;52.414;13.226;2023-05-07T03:24:17;9.50;99.90
64209;DHT22;50527;52.414;13.226;2023-05-07T03:26:42;9.50;99.90
64209;DHT22;50527;52.414;13.226;2023-05-07T03:29:08;9.50;99.90
64209;DHT22;50527;52.414;13.226;2023-05-07T03:31:33;9.40;99.90
64209;DHT22;50527;52.414;13.226;2023-05-07T03:33:59;9.40;99.90
64209;DHT22;50527;52.414;13.226;2023-05-07T03:36:24;9.50;99.90
64209;DHT22;50527;52.414;13.226;2023-05-07T03:38:52;9.50;99.90
64209;DHT22;50527;52.414;13.226;2023-05-07T03:41:17;9.50;99.90
64209;DHT22;50527;52.414;13.226;2023-05-07T03:43:43;9.50;99.90
64209;DHT22;50527;52.414;13.226;2023-05-07T03:46:08;9.40;99.90
64209;DHT22;50527;52.414;13.226;2023-05-07T03:48:34;9.50;99.90
64209;DHT22;50527;52.414;13.226;2023-05-07T03:50:59;9.50;99.90
64209;DHT22;50527;52.414;13.226;2023-05-07T03:53:25;9.50;99.90
64209;DHT22;50527;52.414;13.226;2023-05-07T03:55:51;9.50;99.90
64209;DHT22;50527;52.414;13.226;2023-05-07T03:58:16;9.40;99.90
64209;DHT22;50527;52.414;13.226;2023-05-07T04:00:42;9.50;99.90
64209;DHT22;50527;52.414;13.226;2023-05-07T04:03:08;9.50;99.90
64209;DHT22;50527;52.414;13.226;2023-05-07T04:05:33;9.40;99.90
64209;DHT22;50527;52.414;13.226;2023-05-07T04:07:59;9.50;99.90
64209;DHT22;50527;52.414;13.226;2023-05-07T04:10:25;9.50;99.90
64209;DHT22;50527;52.414;13.226;2023-05-07T04:12:51;9.60;99.90
64209;DHT22;50527;52.414;13.226;2023-05-07T04:15:17;9.60;99.90
64209;DHT22;50527;52.414;13.226;2023-05-07T04:17:42;9.60;99.90
64209;DHT22;50527;52.414;13.226;2023-05-07T04:20:15;9.60;99.90
64209;DHT22;50527;52.414;13.226;2023-05-07T04:22:41;9.60;99.90
64209;DHT22;50527;52.414;13.226;2023-05-07T04:25:08;9.60;99.90
64209;DHT22;50527;52.414;13.226;2023-05-07T04:27:34;9.60;99.90
64209;DHT22;50527;52.414;13.226;2023-05-07T04:30:00;9.60;99.90
64209;DHT22;50527;52.414;13.226;2023-05-07T04:32:26;9.50;99.90
64209;DHT22;50527;52.414;13.226;2023-05-07T04:34:51;9.50;99.90
64209;DHT22;50527;52.414;13.226;2023-05-07T04:37:17;9.50;99.90
64209;DHT22;50527;52.414;13.226;2023-05-07T04:39:43;9.50;99.90
64209;DHT22;50527;52.414;13.226;2023-05-07T04:42:08;9.50;99.90
64209;DHT22;50527;52.414;13.226;2023-05-07T04:44:34;9.50;99.90
64209;DHT22;50527;52.414;13.226;2023-05-07T04:47:00;9.50;99.90
64209;DHT22;50527;52.414;13.226;2023-05-07T04:49:26;9.60;99.90
64209;DHT22;50527;52.414;13.226;2023-05-07T04:51:51;9.50;99.90
64209;DHT22;50527;52.414;13.226;2023-05-07T04:54:17;9.60;99.90
64209;DHT22;50527;52.414;13.226;2023-05-07T04:56:42;9.50;99.90
64209;DHT22;50527;52.414;13.226;2023-05-07T04:59:08;9.60;99.90
64209;DHT22;50527;52.414;13.226;2023-05-07T05:01:33;9.50;99.90
64209;DHT22;50527;52.414;13.226;2023-05-07T05:03:59;9.50;99.90
64209;DHT22;50527;52.414;13.226;2023-05-07T05:06:25;9.50;99.90
64209;DHT22;50527;52.414;13.226;2023-05-07T05:08:51;9.50;99.90
64209;DHT22;50527;52.414;13.226;2023-05-07T05:11:16;9.50;99.90
64209;DHT22;50527;52.414;13.226;2023-05-07T05:13:42;9.50;99.90
64209;DHT22;50527;52.414;13.226;2023-05-07T05:16:07;9.50;99.90
64209;DHT22;50527;52.414;13.226;2023-05-07T05:18:33;9.60;99.80
64209;DHT22;50527;52.414;13.226;2023-05-07T05:20:58;9.60;99.90
64209;DHT22;50527;52.414;13.226;2023-05-07T05:23:24;9.50;99.90
64209;DHT22;50527;52.414;13.226;2023-05-07T05:25:49;9.60;99.20
64209;DHT22;50527;52.414;13.226;2023-05-07T05:28:15;9.60;99.20
64209;DHT22;50527;52.414;13.226;2023-05-07T05:30:40;9.70;99.10
64209;DHT22;50527;52.414;13.226;2023-05-07T05:33:06;9.60;98.80
64209;DHT22;50527;52.414;13.226;2023-05-07T05:35:31;9.60;99.60
64209;DHT22;50527;52.414;13.226;2023-05-07T05:37:57;9.60;99.30
64209;DHT22;50527;52.414;13.226;2023-05-07T05:40:22;9.60;98.80
64209;DHT22;50527;52.414;13.226;2023-05-07T05:42:48;9.60;98.50
64209;DHT22;50527;52.414;13.226;2023-05-07T05:45:13;9.70;99.40
64209;DHT22;50527;52.414;13.226;2023-05-07T05:47:39;9.60;98.90
64209;DHT22;50527;52.414;13.226;2023-05-07T05:50:06;9.80;99.10
64209;DHT22;50527;52.414;13.226;2023-05-07T05:52:31;9.80;98.40
64209;DHT22;50527;52.414;13.226;2023-05-07T05:54:57;9.90;98.10
64209;DHT22;50527;52.414;13.226;2023-05-07T05:57:22;10.00;97.70
64209;DHT22;50527;52.414;13.226;2023-05-07T05:59:48;10.10;97.30
64209;DHT22;50527;52.414;13.226;2023-05-07T06:02:13;10.00;97.40
64209;DHT22;50527;52.414;13.226;2023-05-07T06:04:39;10.10;96.60
64209;DHT22;50527;52.414;13.226;2023-05-07T06:07:05;10.10;97.90
64209;DHT22;50527;52.414;13.226;2023-05-07T06:09:30;10.10;97.20
64209;DHT22;50527;52.414;13.226;2023-05-07T06:11:56;10.20;96.80
64209;DHT22;50527;52.414;13.226;2023-05-07T06:14:21;10.20;96.00
64209;DHT22;50527;52.414;13.226;2023-05-07T06:16:47;10.20;96.20
64209;DHT22;50527;52.414;13.226;2023-05-07T06:19:12;10.40;96.60
64209;DHT22;50527;52.414;13.226;2023-05-07T06:21:39;10.40;95.20
64209;DHT22;50527;52.414;13.226;2023-05-07T06:24:04;10.30;95.60
64209;DHT22;50527;52.414;13.226;2023-05-07T06:26:30;10.50;96.10
64209;DHT22;50527;52.414;13.226;2023-05-07T06:28:55;10.50;94.20
64209;DHT22;50527;52.414;13.226;2023-05-07T06:31:21;10.50;93.70
64209;DHT22;50527;52.414;13.226;2023-05-07T06:33:47;10.40;94.10
64209;DHT22;50527;52.414;13.226;2023-05-07T06:36:13;10.40;95.40
64209;DHT22;50527;52.414;13.226;2023-05-07T06:38:38;10.30;96.10
64209;DHT22;50527;52.414;13.226;2023-05-07T06:41:05;10.40;95.60
64209;DHT22;50527;52.414;13.226;2023-05-07T06:43:30;10.50;95.60
64209;DHT22;50527;52.414;13.226;2023-05-07T06:45:56;10.50;94.60
64209;DHT22;50527;52.414;13.226;2023-05-07T06:48:21;10.60;94.80
64209;DHT22;50527;52.414;13.226;2023-05-07T06:50:46;10.70;93.90
64209;DHT22;50527;52.414;13.226;2023-05-07T06:53:12;10.60;93.80
64209;DHT22;50527;52.414;13.226;2023-05-07T06:55:37;10.70;93.30
64209;DHT22;50527;52.414;13.226;2023-05-07T06:58:03;11.20;91.90
64209;DHT22;50527;52.414;13.226;2023-05-07T07:00:29;11.50;91.10
64209;DHT22;50527;52.414;13.226;2023-05-07T07:02:55;11.50;90.50
64209;DHT22;50527;52.414;13.226;2023-05-07T07:05:20;11.50;90.50
64209;DHT22;50527;52.414;13.226;2023-05-07T07:07:46;11.40;91.20
64209;DHT22;50527;52.414;13.226;2023-05-07T07:10:18;11.20;91.40
64209;DHT22;50527;52.414;13.226;2023-05-07T07:12:44;11.20;92.00
64209;DHT22;50527;52.414;13.226;2023-05-07T07:15:10;11.30;91.20
64209;DHT22;50527;52.414;13.226;2023-05-07T07:17:35;11.20;92.00
64209;DHT22;50527;52.414;13.226;2023-05-07T07:20:01;11.30;91.70
64209;DHT22;50527;52.414;13.226;2023-05-07T07:22:26;11.10;91.70
64209;DHT22;50527;52.414;13.226;2023-05-07T07:24:52;11.20;92.20
64209;DHT22;50527;52.414;13.226;2023-05-07T07:27:17;11.30;92.00
64209;DHT22;50527;52.414;13.226;2023-05-07T07:29:43;11.30;91.40
64209;DHT22;50527;52.414;13.226;2023-05-07T07:32:08;11.60;91.10
64209;DHT22;50527;52.414;13.226;2023-05-07T07:34:34;12.00;89.40
64209;DHT22;50527;52.414;13.226;2023-05-07T07:36:59;12.20;86.20
64209;DHT22;50527;52.414;13.226;2023-05-07T07:39:30;12.40;86.50
64209;DHT22;50527;52.414;13.226;2023-05-07T07:41:56;12.30;87.00
64209;DHT22;50527;52.414;13.226;2023-05-07T07:44:21;12.20;86.10
64209;DHT22;50527;52.414;13.226;2023-05-07T07:46:47;12.20;87.00
64209;DHT22;50527;52.414;13.226;2023-05-07T07:49:12;12.10;88.00
64209;DHT22;50527;52.414;13.226;2023-05-07T07:51:38;12.70;86.50
64209;DHT22;50527;52.414;13.226;2023-05-07T07:54:03;14.80;78.90
64209;DHT22;50527;52.414;13.226;2023-05-07T07:56:29;15.70;72.70
64209;DHT22;50527;52.414;13.226;2023-05-07T07:58:55;16.70;66.20
64209;DHT22;50527;52.414;13.226;2023-05-07T08:01:20;17.10;63.50
64209;DHT22;50527;52.414;13.226;2023-05-07T08:03:45;16.80;63.70
64209;DHT22;50527;52.414;13.226;2023-05-07T08:06:11;15.90;64.90
64209;DHT22;50527;52.414;13.226;2023-05-07T08:08:36;15.10;66.10
64209;DHT22;50527;52.414;13.226;2023-05-07T08:11:02;14.40;69.60
64209;DHT22;50527;52.414;13.226;2023-05-07T08:13:27;14.20;73.00
64209;DHT22;50527;52.414;13.226;2023-05-07T08:15:53;14.60;72.80
64209;DHT22;50527;52.414;13.226;2023-05-07T08:18:19;15.10;69.40
64209;DHT22;50527;52.414;13.226;2023-05-07T08:20:44;16.00;67.00
64209;DHT22;50527;52.414;13.226;2023-05-07T08:23:10;16.40;65.10
64209;DHT22;50527;52.414;13.226;2023-05-07T08:25:35;15.70;64.30
64209;DHT22;50527;52.414;13.226;2023-05-07T08:28:01;15.60;66.50
64209;DHT22;50527;52.414;13.226;2023-05-07T08:30:29;15.30;68.70
64209;DHT22;50527;52.414;13.226;2023-05-07T08:32:55;15.10;69.50
64209;DHT22;50527;52.414;13.226;2023-05-07T08:35:20;16.00;66.30
64209;DHT22;50527;52.414;13.226;2023-05-07T08:37:46;15.90;65.00
64209;DHT22;50527;52.414;13.226;2023-05-07T08:40:11;16.00;65.50
64209;DHT22;50527;52.414;13.226;2023-05-07T08:42:37;16.60;66.10
64209;DHT22;50527;52.414;13.226;2023-05-07T08:45:04;16.70;64.70
64209;DHT22;50527;52.414;13.226;2023-05-07T08:47:46;17.20;60.80
64209;DHT22;50527;52.414;13.226;2023-05-07T08:50:12;16.90;62.00
64209;DHT22;50527;52.414;13.226;2023-05-07T08:52:39;16.40;62.60
64209;DHT22;50527;52.414;13.226;2023-05-07T08:55:06;16.20;63.80
64209;DHT22;50527;52.414;13.226;2023-05-07T08:57:31;15.90;64.80
64209;DHT22;50527;52.414;13.226;2023-05-07T08:59:57;15.80;64.90
64209;DHT22;50527;52.414;13.226;2023-05-07T09:02:22;15.50;68.30
64209;DHT22;50527;52.414;13.226;2023-05-07T09:04:48;15.20;71.30
64209;DHT22;50527;52.414;13.226;2023-05-07T09:07:13;15.00;71.50
64209;DHT22;50527;52.414;13.226;2023-05-07T09:09:39;15.00;69.60
64209;DHT22;50527;52.414;13.226;2023-05-07T09:12:04;15.60;68.80
64209;DHT22;50527;52.414;13.226;2023-05-07T09:14:30;16.00;64.30
64209;DHT22;50527;52.414;13.226;2023-05-07T09:16:56;15.90;63.40
64209;DHT22;50527;52.414;13.226;2023-05-07T09:19:23;15.60;66.70
64209;DHT22;50527;52.414;13.226;2023-05-07T09:21:49;15.60;65.00
64209;DHT22;50527;52.414;13.226;2023-05-07T09:24:15;15.90;63.90
64209;DHT22;50527;52.414;13.226;2023-05-07T09:26:41;16.20;62.00
64209;DHT22;50527;52.414;13.226;2023-05-07T09:29:08;16.20;63.00
64209;DHT22;50527;52.414;13.226;2023-05-07T09:31:38;16.00;62.50
64209;DHT22;50527;52.414;13.226;2023-05-07T09:34:05;16.00;63.30
64209;DHT22;50527;52.414;13.226;2023-05-07T09:36:31;16.00;61.90
64209;DHT22;50527;52.414;13.226;2023-05-07T09:38:59;16.20;64.60
64209;DHT22;50527;52.414;13.226;2023-05-07T09:41:26;16.20;62.90
64209;DHT22;50527;52.414;13.226;2023-05-07T09:43:55;16.10;62.10
64209;DHT22;50527;52.414;13.226;2023-05-07T09:46:25;16.30;62.30
64209;DHT22;50527;52.414;13.226;2023-05-07T09:48:53;16.50;63.70
64209;DHT22;50527;52.414;13.226;2023-05-07T09:51:25;16.60;63.10
64209;DHT22;50527;52.414;13.226;2023-05-07T09:53:53;16.40;60.60
64209;DHT22;50527;52.414;13.226;2023-05-07T09:56:20;16.00;61.20
64209;DHT22;50527;52.414;13.226;2023-05-07T09:58:46;15.50;63.70
64209;DHT22;50527;52.414;13.226;2023-05-07T10:01:12;15.30;65.60
64209;DHT22;50527;52.414;13.226;2023-05-07T10:03:40;15.20;65.30
64209;DHT22;50527;52.414;13.226;2023-05-07T10:06:08;15.10;67.60
64209;DHT22;50527;52.414;13.226;2023-05-07T10:08:35;15.10;66.00
64209;DHT22;50527;52.414;13.226;2023-05-07T10:11:01;15.40;65.20
64209;DHT22;50527;52.414;13.226;2023-05-07T10:13:27;15.50;66.30
64209;DHT22;50527;52.414;13.226;2023-05-07T10:15:52;15.70;63.60
64209;DHT22;50527;52.414;13.226;2023-05-07T10:18:19;16.00;61.80
64209;DHT22;50527;52.414;13.226;2023-05-07T10:20:51;16.00;62.10
64209;DHT22;50527;52.414;13.226;2023-05-07T10:23:21;15.70;62.20
64209;DHT22;50527;52.414;13.226;2023-05-07T10:25:48;15.70;63.90
64209;DHT22;50527;52.414;13.226;2023-05-07T10:28:13;15.50;63.60
64209;DHT22;50527;52.414;13.226;2023-05-07T10:31:08;15.20;65.50
64209;DHT22;50527;52.414;13.226;2023-05-07T10:33:37;15.30;64.50
64209;DHT22;50527;52.414;13.226;2023-05-07T10:36:03;15.10;67.60
64209;DHT22;50527;52.414;13.226;2023-05-07T10:38:30;15.10;66.50
64209;DHT22;50527;52.414;13.226;2023-05-07T10:40:56;15.10;65.30
64209;DHT22;50527;52.414;13.226;2023-05-07T10:43:22;14.80;65.50
64209;DHT22;50527;52.414;13.226;2023-05-07T10:46:18;14.80;66.50
64209;DHT22;50527;52.414;13.226;2023-05-07T10:51:29;15.40;68.90
64209;DHT22;50527;52.414;13.226;2023-05-07T10:54:19;15.40;66.20
64209;DHT22;50527;52.414;13.226;2023-05-07T10:56:44;15.40;68.30
64209;DHT22;50527;52.414;13.226;2023-05-07T11:04:21;15.10;65.10
64209;DHT22;50527;52.414;13.226;2023-05-07T11:15:15;15.00;66.20
64209;DHT22;50527;52.414;13.226;2023-05-07T11:17:59;15.10;67.40
64209;DHT22;50527;52.414;13.226;2023-05-07T11:20:45;15.00;66.50
64209;DHT22;50527;52.414;13.226;2023-05-07T11:26:10;15.40;65.70
64209;DHT22;50527;52.414;13.226;2023-05-07T11:28:41;15.60;64.60
64209;DHT22;50527;52.414;13.226;2023-05-07T11:31:07;15.70;64.40
64209;DHT22;50527;52.414;13.226;2023-05-07T11:33:34;15.80;62.00
64209;DHT22;50527;52.414;13.226;2023-05-07T11:36:01;16.10;63.50
64209;DHT22;50527;52.414;13.226;2023-05-07T11:38:28;16.10;62.10
64209;DHT22;50527;52.414;13.226;2023-05-07T11:40:57;16.30;60.80
64209;DHT22;50527;52.414;13.226;2023-05-07T11:43:57;16.40;59.10
64209;DHT22;50527;52.414;13.226;2023-05-07T11:53:08;15.50;61.30
64209;DHT22;50527;52.414;13.226;2023-05-07T12:02:17;15.30;63.00
64209;DHT22;50527;52.414;13.226;2023-05-07T12:04:55;15.60;61.70
64209;DHT22;50527;52.414;13.226;2023-05-07T12:07:21;15.70;62.10
64209;DHT22;50527;52.414;13.226;2023-05-07T12:09:47;15.90;62.30
64209;DHT22;50527;52.414;13.226;2023-05-07T12:12:13;16.00;61.90
64209;DHT22;50527;52.414;13.226;2023-05-07T12:14:45;15.90;61.20
64209;DHT22;50527;52.414;13.226;2023-05-07T12:17:13;15.80;59.90
64209;DHT22;50527;52.414;13.226;2023-05-07T12:19:41;15.90;60.60
64209;DHT22;50527;52.414;13.226;2023-05-07T12:22:08;15.60;60.30
64209;DHT22;50527;52.414;13.226;2023-05-07T12:24:47;15.50;60.70
64209;DHT22;50527;52.414;13.226;2023-05-07T12:27:14;15.40;61.60
64209;DHT22;50527;52.414;13.226;2023-05-07T12:29:40;15.40;62.70
64209;DHT22;50527;52.414;13.226;2023-05-07T12:32:13;15.30;61.70
64209;DHT22;50527;52.414;13.226;2023-05-07T12:34:40;15.10;61.50
64209;DHT22;50527;52.414;13.226;2023-05-07T12:40:41;15.30;62.80
64209;DHT22;50527;52.414;13.226;2023-05-07T12:46:38;15.70;61.30
64209;DHT22;50527;52.414;13.226;2023-05-07T12:49:04;15.70;59.50
64209;DHT22;50527;52.414;13.226;2023-05-07T12:51:30;15.80;59.90
64209;DHT22;50527;52.414;13.226;2023-05-07T12:53:56;16.10;59.80
64209;DHT22;50527;52.414;13.226;2023-05-07T12:56:23;16.20;57.70
64209;DHT22;50527;52.414;13.226;2023-05-07T12:58:58;16.20;57.80
64209;DHT22;50527;52.414;13.226;2023-05-07T13:01:29;16.20;57.70
64209;DHT22;50527;52.414;13.226;2023-05-07T13:03:54;16.20;58.00
64209;DHT22;50527;52.414;13.226;2023-05-07T13:06:23;16.40;59.20
64209;DHT22;50527;52.414;13.226;2023-05-07T13:08:48;16.70;56.70
64209;DHT22;50527;52.414;13.226;2023-05-07T13:11:14;16.90;56.00
64209;DHT22;50527;52.414;13.226;2023-05-07T13:13:41;17.00;56.30
64209;DHT22;50527;52.414;13.226;2023-05-07T13:16:40;17.20;57.10
64209;DHT22;50527;52.414;13.226;2023-05-07T13:22:29;17.40;54.90
64209;DHT22;50527;52.414;13.226;2023-05-07T13:27:57;17.50;54.30
64209;DHT22;50527;52.414;13.226;2023-05-07T13:30:23;17.20;54.40
64209;DHT22;50527;52.414;13.226;2023-05-07T13:32:48;17.10;55.50
64209;DHT22;50527;52.414;13.226;2023-05-07T13:35:16;17.20;56.40
64209;DHT22;50527;52.414;13.226;2023-05-07T13:41:03;17.30;54.10
64209;DHT22;50527;52.414;13.226;2023-05-07T13:43:29;17.40;56.40
64209;DHT22;50527;52.414;13.226;2023-05-07T13:45:54;17.40;54.10
64209;DHT22;50527;52.414;13.226;2023-05-07T13:48:20;17.40;54.40
64209;DHT22;50527;52.414;13.226;2023-05-07T13:50:45;17.30;55.80
64209;DHT22;50527;52.414;13.226;2023-05-07T13:53:11;17.40;55.80
64209;DHT22;50527;52.414;13.226;2023-05-07T13:55:36;17.20;54.60
64209;DHT22;50527;52.414;13.226;2023-05-07T13:58:02;17.30;56.50
64209;DHT22;50527;52.414;13.226;2023-05-07T14:00:29;17.30;56.30
64209;DHT22;50527;52.414;13.226;2023-05-07T14:02:55;17.40;55.20
64209;DHT22;50527;52.414;13.226;2023-05-07T14:05:21;17.10;54.10
64209;DHT22;50527;52.414;13.226;2023-05-07T14:07:49;16.90;55.00
64209;DHT22;50527;52.414;13.226;2023-05-07T14:10:17;16.90;56.20
64209;DHT22;50527;52.414;13.226;2023-05-07T14:12:44;17.00;57.80
64209;DHT22;50527;52.414;13.226;2023-05-07T14:15:10;17.10;57.70
64209;DHT22;50527;52.414;13.226;2023-05-07T14:17:35;17.40;57.90
64209;DHT22;50527;52.414;13.226;2023-05-07T14:20:01;17.40;55.30
64209;DHT22;50527;52.414;13.226;2023-05-07T14:22:26;17.50;55.00
64209;DHT22;50527;52.414;13.226;2023-05-07T14:24:52;17.40;53.90
64209;DHT22;50527;52.414;13.226;2023-05-07T14:27:17;17.40;53.90
64209;DHT22;50527;52.414;13.226;2023-05-07T14:29:43;17.20;55.20
64209;DHT22;50527;52.414;13.226;2023-05-07T14:32:08;17.10;54.40
64209;DHT22;50527;52.414;13.226;2023-05-07T14:34:34;16.90;55.30
64209;DHT22;50527;52.414;13.226;2023-05-07T14:37:00;16.50;55.30
64209;DHT22;50527;52.414;13.226;2023-05-07T14:39:26;16.30;56.90
64209;DHT22;50527;52.414;13.226;2023-05-07T14:41:52;16.10;57.90
64209;DHT22;50527;52.414;13.226;2023-05-07T14:44:20;16.10;57.50
64209;DHT22;50527;52.414;13.226;2023-05-07T14:46:45;16.00;56.70
64209;DHT22;50527;52.414;13.226;2023-05-07T14:49:13;15.80;56.60
64209;DHT22;50527;52.414;13.226;2023-05-07T14:51:46;15.70;57.00
64209;DHT22;50527;52.414;13.226;2023-05-07T14:54:12;15.80;57.40
64209;DHT22;50527;52.414;13.226;2023-05-07T14:56:38;15.90;59.90
64209;DHT22;50527;52.414;13.226;2023-05-07T14:59:04;16.10;57.50
64209;DHT22;50527;52.414;13.226;2023-05-07T15:01:30;16.20;57.60
64209;DHT22;50527;52.414;13.226;2023-05-07T15:03:55;16.30;56.80
64209;DHT22;50527;52.414;13.226;2023-05-07T15:06:21;16.50;56.10
64209;DHT22;50527;52.414;13.226;2023-05-07T15:08:49;16.50;56.10
64209;DHT22;50527;52.414;13.226;2023-05-07T15:11:15;16.70;57.40
64209;DHT22;50527;52.414;13.226;2023-05-07T15:13:42;16.70;55.10
64209;DHT22;50527;52.414;13.226;2023-05-07T15:16:07;16.80;56.60
64209;DHT22;50527;52.414;13.226;2023-05-07T15:18:33;16.90;55.60
64209;DHT22;50527;52.414;13.226;2023-05-07T15:20:59;16.90;54.60
64209;DHT22;50527;52.414;13.226;2023-05-07T15:23:24;16.70;55.90
64209;DHT22;50527;52.414;13.226;2023-05-07T15:25:50;16.70;56.80
64209;DHT22;50527;52.414;13.226;2023-05-07T15:28:15;16.80;57.20
64209;DHT22;50527;52.414;13.226;2023-05-07T15:30:41;16.80;56.20
64209;DHT22;50527;52.414;13.226;2023-05-07T15:33:06;17.00;56.20
64209;DHT22;50527;52.414;13.226;2023-05-07T15:35:31;17.00;56.30
64209;DHT22;50527;52.414;13.226;2023-05-07T15:37:57;16.90;55.30
64209;DHT22;50527;52.414;13.226;2023-05-07T15:40:22;16.90;55.80
64209;DHT22;50527;52.414;13.226;2023-05-07T15:42:48;16.90;56.10
64209;DHT22;50527;52.414;13.226;2023-05-07T15:45:14;16.90;56.50
64209;DHT22;50527;52.414;13.226;2023-05-07T15:47:39;16.70;56.30
64209;DHT22;50527;52.414;13.226;2023-05-07T15:50:05;16.60;56.60
64209;DHT22;50527;52.414;13.226;2023-05-07T15:52:31;16.60;57.80
64209;DHT22;50527;52.414;13.226;2023-05-07T15:54:57;16.40;58.70
64209;DHT22;50527;52.414;13.226;2023-05-07T15:57:23;16.50;56.60
64209;DHT22;50527;52.414;13.226;2023-05-07T15:59:49;16.50;57.20
64209;DHT22;50527;52.414;13.226;2023-05-07T16:02:15;16.60;57.20
64209;DHT22;50527;52.414;13.226;2023-05-07T16:04:40;16.30;57.30
64209;DHT22;50527;52.414;13.226;2023-05-07T16:07:06;16.20;56.70
64209;DHT22;50527;52.414;13.226;2023-05-07T16:09:32;16.20;57.20
64209;DHT22;50527;52.414;13.226;2023-05-07T16:11:58;16.30;56.40
64209;DHT22;50527;52.414;13.226;2023-05-07T16:14:24;16.30;56.20
64209;DHT22;50527;52.414;13.226;2023-05-07T16:16:50;16.20;55.60
64209;DHT22;50527;52.414;13.226;2023-05-07T16:19:15;16.20;57.50
64209;DHT22;50527;52.414;13.226;2023-05-07T16:21:41;16.20;58.20
64209;DHT22;50527;52.414;13.226;2023-05-07T16:24:06;16.30;56.60
64209;DHT22;50527;52.414;13.226;2023-05-07T16:26:32;16.30;57.30